Minot, ME

14:00 EST le 02 Mars 2015 (GMT -0500)
Auburn-Lewiston Municipal | Change Station
CLOSE
Current Station
Aéroport
Location: Auburn-Lewiston,
Altitude: 289 ft
Stations météo à proximité

Alt. 289 ft 44.05 °N, 70.28 °W | Updated 5 minutes ago

Nuageux
Nuageux
32 ° F
Paraît 21 ° F
N
17
Vent Variable Vent de ONO
Gusts 28 mph

Aujourd'hui
Haut(e) -- | Bas -- ° F
--% Risque de précip.
Hier
Haut(e) -- | Bas -- ° F
Precip. -- pouce
6:17 AM 5:30 PM
Lune gibbeuse croissante, 92% visible
Pression 29.85 pouce
Visibilité 10.0 Miles terrestres
Nuages Couvert 5500 ft
Refroidissement éolien 21 ° F
Point de rosée 10 ° F
Humidité 41%
Précipitations 0.00 pouce
Profondeur de la couche neigeuse Non disponible.
UV 1 sur 12
Pollen .30 sur 12
Qualité de l'air Non disponible.
Flu Activity Non disponible.
METAR KLEW 021855Z AUTO 30015G24KT 10SM OVC055 00/M12 A2985 RMK AO1

More Conditions Fewer Conditions

Pression 29.85 pouce
Visibilité 10.0 Miles terrestres
Nuages Couvert 5500 ft
Refroidissement éolien 21 ° F
Point de rosée 10 ° F
Humidité 41%
Précipitations 0.00 pouce
Profondeur de la couche neigeuse Non disponible.
UV 1 sur 12
Pollen .30 sur 12
Qualité de l'air Non disponible.
Flu Activity Non disponible.
METAR KLEW 021855Z AUTO 30015G24KT 10SM OVC055 00/M12 A2985 RMK AO1

More Conditions Fewer Conditions

10-Day Weather Forecast

Almanac

Astronomie

Mar. 02, 2015 Lever Coucher
Temps réel
Crépuscule civil
Crépuscule nautique
Crépuscule astronomique
Lune
Durée de lumière visible
Longueur du jour
Tomorrow will be .
, % of the Moon is Illuminated

Extrêmes aujourd'hui

State Highs State Lows

Community

WunderPhotos

Upload Photos

1,801,913 Photos téléchargées !

WunderBlogs® & News

Nearby

Qualité de l'air

  Qualité de l'air Indice de la qualité de l'air Polluant
Not available.

Épaisseur de neige

Station Depth Altitude

Activité sismique

Ville Distance Mag. Time & Date
Minimum magnitude displayed is 2.5.

Températures des eaux côtières

Lieu Température

Stations météo à proximité